Time;durP1;ratioP1;P1;durP2;ratioP2;P2;SDS_P1;SDS_P2;PMS_P1;PMS_P2;Temp;Humidity;BMP_temperature;BMP_pressure;BME280_temperature;BME280_humidity;BME280_pressure;Samples;Min_cycle;Max_cycle;Signal;HPM_P1;HPM_P2
2023/08/03 00:01:39;;;;;;;6.18;1.10;;;;;;;;;;4970768;28;20225;-61
2023/08/03 00:04:05;;;;;;;2.22;0.77;;;;;;;;;;4968663;28;20300;-61
2023/08/03 00:06:30;;;;;;;6.78;0.90;;;;;;;;;;4969158;28;20221;-61
2023/08/03 00:08:55;;;;;;;12.82;1.35;;;;;;;;;;4971043;28;20279;-61
2023/08/03 00:11:20;;;;;;;4.20;0.88;;;;;;;;;;4969611;28;20218;-61
2023/08/03 00:13:46;;;;;;;4.13;1.02;;;;;;;;;;4968471;28;20242;-61
2023/08/03 00:16:11;;;;;;;4.97;1.00;;;;;;;;;;4970295;28;20218;-61
2023/08/03 00:18:36;;;;;;;3.50;0.90;;;;;;;;;;4969908;28;20217;-61
2023/08/03 00:21:01;;;;;;;3.63;0.90;;;;;;;;;;4968087;28;20237;-61
2023/08/03 00:23:27;;;;;;;2.38;0.90;;;;;;;;;;4970300;28;21136;-61
2023/08/03 00:25:52;;;;;;;2.55;1.00;;;;;;;;;;4969889;28;20225;-61
2023/08/03 00:28:20;;;;;;;3.10;0.90;;;;;;;;;;4969295;28;20213;-61
2023/08/03 00:30:45;;;;;;;16.63;1.65;;;;;;;;;;4968742;28;20218;-61
2023/08/03 00:33:11;;;;;;;4.50;1.05;;;;;;;;;;4968926;28;20221;-61
2023/08/03 00:35:36;;;;;;;5.20;1.20;;;;;;;;;;4970800;28;20296;-61
2023/08/03 00:38:01;;;;;;;3.67;0.98;;;;;;;;;;4973644;28;20330;-61
2023/08/03 00:40:26;;;;;;;4.90;1.20;;;;;;;;;;4973139;28;20213;-60
2023/08/03 00:42:52;;;;;;;3.67;1.00;;;;;;;;;;4983290;28;20214;-61
2023/08/03 00:45:17;;;;;;;2.65;1.02;;;;;;;;;;4971979;28;20233;-62
2023/08/03 00:47:42;;;;;;;8.35;1.13;;;;;;;;;;4972615;28;20344;-61
2023/08/03 00:50:07;;;;;;;4.38;1.10;;;;;;;;;;4972255;28;20321;-61
2023/08/03 00:52:34;;;;;;;3.70;1.10;;;;;;;;;;4971907;28;20905;-61
2023/08/03 00:55:00;;;;;;;2.92;0.88;;;;;;;;;;4972363;28;20366;-61
2023/08/03 00:57:25;;;;;;;2.40;0.95;;;;;;;;;;4972270;28;20217;-61
2023/08/03 00:59:50;;;;;;;2.80;0.90;;;;;;;;;;4972164;28;20331;-61
2023/08/03 01:02:15;;;;;;;3.25;1.20;;;;;;;;;;4972090;28;20217;-61
2023/08/03 01:04:41;;;;;;;2.17;0.98;;;;;;;;;;4972405;28;20213;-61
2023/08/03 01:07:06;;;;;;;9.23;1.70;;;;;;;;;;4971176;28;20312;-63
2023/08/03 01:09:31;;;;;;;9.23;2.38;;;;;;;;;;4972835;28;20214;-64
2023/08/03 01:11:57;;;;;;;5.82;1.60;;;;;;;;;;4972495;28;20214;-64
2023/08/03 01:14:22;;;;;;;5.15;1.55;;;;;;;;;;4942710;28;20249;-63
2023/08/03 01:16:47;;;;;;;4.88;1.52;;;;;;;;;;4943245;28;20253;-62
2023/08/03 01:19:12;;;;;;;3.90;1.45;;;;;;;;;;4943220;28;20214;-62
2023/08/03 01:21:38;;;;;;;13.98;1.92;;;;;;;;;;4941291;28;20218;-62
2023/08/03 01:24:03;;;;;;;4.50;1.80;;;;;;;;;;4943379;28;20215;-62
2023/08/03 01:26:29;;;;;;;4.93;2.00;;;;;;;;;;4960785;28;20248;-62
2023/08/03 01:28:54;;;;;;;6.60;1.92;;;;;;;;;;4951761;28;20285;-63
2023/08/03 01:31:20;;;;;;;7.75;2.40;;;;;;;;;;4935420;28;20303;-62
2023/08/03 01:33:45;;;;;;;6.35;2.20;;;;;;;;;;4936343;28;20876;-62
2023/08/03 01:39:13;;;;;;;5.22;1.90;;;;;;;;;;4941889;28;20213;-62
2023/08/03 01:41:41;;;;;;;4.07;1.40;;;;;;;;;;4942897;28;20215;-62
2023/08/03 01:44:17;;;;;;;5.03;1.40;;;;;;;;;;4943036;28;20657;-62
2023/08/03 01:46:42;;;;;;;3.97;1.13;;;;;;;;;;4958415;28;20230;-62
2023/08/03 01:49:07;;;;;;;9.57;1.70;;;;;;;;;;4940987;28;20264;-62
2023/08/03 01:51:33;;;;;;;5.53;1.40;;;;;;;;;;4936107;28;20237;-62
2023/08/03 01:53:58;;;;;;;6.97;2.17;;;;;;;;;;4935548;28;20827;-62
2023/08/03 01:56:23;;;;;;;6.05;1.58;;;;;;;;;;4935861;28;20308;-62
2023/08/03 01:58:49;;;;;;;5.40;1.48;;;;;;;;;;4944042;28;20222;-62
2023/08/03 02:01:14;;;;;;;4.30;1.10;;;;;;;;;;4948229;28;20771;-61
2023/08/03 02:03:39;;;;;;;5.05;1.40;;;;;;;;;;4945454;28;20221;-61
2023/08/03 02:06:04;;;;;;;4.65;1.35;;;;;;;;;;4948792;28;20653;-61
2023/08/03 02:08:30;;;;;;;5.40;1.33;;;;;;;;;;4951137;28;20708;-62
2023/08/03 02:10:55;;;;;;;4.95;1.70;;;;;;;;;;4950687;28;21059;-61
2023/08/03 02:13:20;;;;;;;5.10;1.30;;;;;;;;;;4949490;28;20230;-62
2023/08/03 02:15:46;;;;;;;5.65;1.63;;;;;;;;;;4966132;28;20255;-61
2023/08/03 02:18:11;;;;;;;6.68;2.25;;;;;;;;;;4971891;28;20213;-62
2023/08/03 02:20:36;;;;;;;8.82;2.80;;;;;;;;;;4971822;28;20214;-61
2023/08/03 02:23:02;;;;;;;12.13;2.50;;;;;;;;;;4969936;28;20573;-62
2023/08/03 02:25:27;;;;;;;12.00;2.58;;;;;;;;;;4972039;28;20210;-61
2023/08/03 02:27:52;;;;;;;8.90;2.70;;;;;;;;;;4972651;28;20217;-61
2023/08/03 02:30:17;;;;;;;10.52;2.67;;;;;;;;;;4970837;28;20934;-61
2023/08/03 02:32:43;;;;;;;8.23;2.55;;;;;;;;;;4971103;28;20218;-61
2023/08/03 02:35:08;;;;;;;12.82;3.20;;;;;;;;;;4971975;28;20241;-61
2023/08/03 02:37:34;;;;;;;18.55;3.33;;;;;;;;;;4972075;28;20237;-62
2023/08/03 02:40:00;;;;;;;10.32;3.10;;;;;;;;;;4969997;28;20300;-62
2023/08/03 02:42:25;;;;;;;10.45;3.10;;;;;;;;;;4971471;28;20232;-62
2023/08/03 02:44:50;;;;;;;9.38;3.45;;;;;;;;;;4971957;28;20245;-61
2023/08/03 02:47:15;;;;;;;9.98;3.72;;;;;;;;;;4969519;28;20229;-62
2023/08/03 02:49:41;;;;;;;9.15;3.45;;;;;;;;;;4971635;28;20229;-62
2023/08/03 02:52:06;;;;;;;8.13;3.33;;;;;;;;;;4970854;28;20218;-62
2023/08/03 02:54:31;;;;;;;9.77;3.30;;;;;;;;;;4971182;28;20223;-61
2023/08/03 02:56:57;;;;;;;13.63;3.58;;;;;;;;;;4970407;28;20727;-62
2023/08/03 02:59:22;;;;;;;12.05;3.63;;;;;;;;;;4971323;28;20213;-62
2023/08/03 03:01:47;;;;;;;9.73;3.50;;;;;;;;;;4971969;28;20217;-63
2023/08/03 03:04:12;;;;;;;8.02;3.28;;;;;;;;;;4969374;28;20216;-62
2023/08/03 03:06:38;;;;;;;17.90;3.60;;;;;;;;;;4971712;28;20222;-62
2023/08/03 03:09:04;;;;;;;19.40;4.07;;;;;;;;;;4971207;28;20554;-62
2023/08/03 03:11:29;;;;;;;13.10;3.40;;;;;;;;;;4970012;28;20217;-62
2023/08/03 03:13:54;;;;;;;32.83;4.80;;;;;;;;;;4970651;28;20218;-62
2023/08/03 03:16:25;;;;;;;13.93;3.95;;;;;;;;;;4971191;28;20590;-62
2023/08/03 03:18:50;;;;;;;12.23;4.10;;;;;;;;;;4970355;28;20210;-62
2023/08/03 03:21:16;;;;;;;11.13;3.70;;;;;;;;;;4968648;28;20211;-62
2023/08/03 03:23:41;;;;;;;9.88;3.80;;;;;;;;;;4971506;28;20227;-61
2023/08/03 03:26:06;;;;;;;8.95;4.10;;;;;;;;;;4964245;28;20590;-62
2023/08/03 03:28:32;;;;;;;8.73;3.80;;;;;;;;;;4968890;28;20225;-61
2023/08/03 03:30:57;;;;;;;9.25;3.40;;;;;;;;;;4971293;28;20228;-62
2023/08/03 03:33:22;;;;;;;7.53;2.70;;;;;;;;;;4971160;28;20221;-62
2023/08/03 03:35:47;;;;;;;6.22;1.67;;;;;;;;;;4969764;28;20229;-62
2023/08/03 03:38:13;;;;;;;4.38;1.63;;;;;;;;;;4969507;28;20206;-62
2023/08/03 03:40:38;;;;;;;2.75;1.30;;;;;;;;;;4971373;28;20224;-63
2023/08/03 03:43:04;;;;;;;9.27;1.65;;;;;;;;;;4967872;28;20299;-62
2023/08/03 03:45:29;;;;;;;2.67;1.00;;;;;;;;;;4941672;28;20217;-62
2023/08/03 03:47:54;;;;;;;2.58;1.10;;;;;;;;;;4942503;28;20238;-62
2023/08/03 03:50:19;;;;;;;2.92;0.90;;;;;;;;;;4946619;28;20234;-62
2023/08/03 03:52:45;;;;;;;2.45;0.93;;;;;;;;;;4951715;28;20700;-62
2023/08/03 03:55:10;;;;;;;6.43;1.20;;;;;;;;;;4949267;28;21547;-62
2023/08/03 03:57:36;;;;;;;21.40;2.00;;;;;;;;;;4949567;28;20305;-62
2023/08/03 04:00:04;;;;;;;12.75;2.33;;;;;;;;;;4950583;28;20285;-62
2023/08/03 04:02:29;;;;;;;4.80;1.40;;;;;;;;;;4949740;28;20678;-63
2023/08/03 04:04:54;;;;;;;4.30;1.27;;;;;;;;;;4944774;28;20226;-61
2023/08/03 04:07:20;;;;;;;15.10;1.75;;;;;;;;;;4941424;28;20234;-61
2023/08/03 04:09:45;;;;;;;5.10;1.50;;;;;;;;;;4942799;28;20218;-63
2023/08/03 04:12:11;;;;;;;5.10;1.95;;;;;;;;;;4944566;28;20294;-63
2023/08/03 04:14:36;;;;;;;6.68;2.30;;;;;;;;;;4949480;28;20217;-63
2023/08/03 04:17:02;;;;;;;3.13;1.30;;;;;;;;;;4949916;28;20670;-62
2023/08/03 04:19:27;;;;;;;8.63;1.90;;;;;;;;;;4948666;28;20599;-62
2023/08/03 04:21:52;;;;;;;2.70;1.55;;;;;;;;;;4948049;28;20373;-62
2023/08/03 04:24:17;;;;;;;4.22;1.70;;;;;;;;;;4948581;28;20225;-62
2023/08/03 04:26:43;;;;;;;7.22;1.80;;;;;;;;;;4948008;28;20721;-61
2023/08/03 04:29:08;;;;;;;5.47;1.92;;;;;;;;;;4939844;28;20261;-61
2023/08/03 04:31:33;;;;;;;5.03;2.20;;;;;;;;;;4940013;28;20218;-61
2023/08/03 04:33:59;;;;;;;11.57;2.67;;;;;;;;;;4943606;28;20234;-62
2023/08/03 04:36:24;;;;;;;5.82;2.40;;;;;;;;;;4948028;28;20213;-61
2023/08/03 04:38:49;;;;;;;20.48;4.32;;;;;;;;;;4948356;28;20218;-62
2023/08/03 04:41:16;;;;;;;16.50;3.80;;;;;;;;;;4950375;28;20260;-62
2023/08/03 04:43:42;;;;;;;17.05;3.03;;;;;;;;;;4949861;28;20219;-61
2023/08/03 04:46:07;;;;;;;10.15;3.30;;;;;;;;;;4947620;28;20312;-61
2023/08/03 04:48:32;;;;;;;6.70;3.50;;;;;;;;;;4948890;28;20262;-61
2023/08/03 04:50:59;;;;;;;14.00;3.47;;;;;;;;;;4943254;28;20278;-61
2023/08/03 04:53:24;;;;;;;12.35;3.63;;;;;;;;;;4939318;28;20222;-61
2023/08/03 04:55:49;;;;;;;14.95;3.67;;;;;;;;;;4940850;28;20688;-61
2023/08/03 04:58:14;;;;;;;8.38;3.40;;;;;;;;;;4948690;28;20335;-62
2023/08/03 05:00:40;;;;;;;7.03;2.33;;;;;;;;;;4946818;28;20241;-62
2023/08/03 05:03:05;;;;;;;12.27;3.38;;;;;;;;;;4947263;28;20275;-63
2023/08/03 05:05:30;;;;;;;5.40;2.10;;;;;;;;;;4958904;28;20222;-62
2023/08/03 05:07:56;;;;;;;8.43;2.30;;;;;;;;;;4964774;28;20225;-62
2023/08/03 05:10:21;;;;;;;18.05;2.88;;;;;;;;;;4969017;28;20220;-60
2023/08/03 05:12:46;;;;;;;16.20;3.20;;;;;;;;;;4967608;28;20430;-60
2023/08/03 05:15:11;;;;;;;7.30;2.20;;;;;;;;;;4967257;28;20213;-59
2023/08/03 05:17:37;;;;;;;26.03;3.53;;;;;;;;;;4968703;28;20441;-60
2023/08/03 05:20:02;;;;;;;13.77;2.70;;;;;;;;;;4965511;28;20702;-60
2023/08/03 05:22:27;;;;;;;21.67;2.85;;;;;;;;;;4966201;28;20735;-59
2023/08/03 05:24:53;;;;;;;16.45;2.45;;;;;;;;;;4965050;28;20226;-60
2023/08/03 05:27:18;;;;;;;7.40;1.80;;;;;;;;;;4961552;28;20229;-60
2023/08/03 05:29:43;;;;;;;9.93;1.90;;;;;;;;;;4963218;28;20297;-59
2023/08/03 05:32:09;;;;;;;14.85;2.28;;;;;;;;;;4964374;28;20232;-61
2023/08/03 05:34:34;;;;;;;10.45;1.90;;;;;;;;;;4964748;28;20221;-60
2023/08/03 05:36:59;;;;;;;8.88;2.08;;;;;;;;;;4965687;28;20273;-61
2023/08/03 05:39:26;;;;;;;7.85;1.80;;;;;;;;;;4965794;28;20671;-61
2023/08/03 05:41:51;;;;;;;29.13;3.25;;;;;;;;;;4964560;28;20217;-60
2023/08/03 05:44:16;;;;;;;8.75;1.80;;;;;;;;;;4966498;28;20220;-60
2023/08/03 05:46:42;;;;;;;8.60;1.75;;;;;;;;;;4967975;28;20226;-61
2023/08/03 05:49:08;;;;;;;9.50;1.87;;;;;;;;;;4968087;28;20441;-61
2023/08/03 05:51:33;;;;;;;5.65;1.50;;;;;;;;;;4967204;28;20681;-61
2023/08/03 05:53:59;;;;;;;11.38;1.77;;;;;;;;;;4968168;28;20662;-61
2023/08/03 05:56:24;;;;;;;7.88;1.60;;;;;;;;;;4966466;28;20219;-62
2023/08/03 05:58:50;;;;;;;5.53;1.40;;;;;;;;;;4969894;28;20221;-62
2023/08/03 06:01:18;;;;;;;7.15;1.60;;;;;;;;;;4966400;28;20234;-62
2023/08/03 06:03:44;;;;;;;6.70;1.42;;;;;;;;;;4968933;28;20213;-61
2023/08/03 06:06:09;;;;;;;41.13;3.70;;;;;;;;;;4970124;28;20698;-62
2023/08/03 06:08:35;;;;;;;12.80;1.80;;;;;;;;;;4966670;28;20222;-62
2023/08/03 06:11:00;;;;;;;9.90;1.88;;;;;;;;;;4969152;28;20672;-61
2023/08/03 06:13:28;;;;;;;7.88;2.05;;;;;;;;;;4967271;28;20253;-61
2023/08/03 06:15:53;;;;;;;40.63;3.67;;;;;;;;;;4966520;28;20316;-61
2023/08/03 06:18:19;;;;;;;8.95;1.88;;;;;;;;;;4967029;28;20677;-61
2023/08/03 06:20:45;;;;;;;14.73;2.13;;;;;;;;;;4968528;28;20306;-61
2023/08/03 06:23:12;;;;;;;16.83;2.50;;;;;;;;;;4967186;28;20280;-62
2023/08/03 06:25:37;;;;;;;23.45;2.75;;;;;;;;;;4972463;28;20296;-62
2023/08/03 06:28:03;;;;;;;10.13;2.22;;;;;;;;;;4968864;28;20240;-62
2023/08/03 06:30:28;;;;;;;8.13;1.98;;;;;;;;;;4965082;28;20265;-61
2023/08/03 06:32:54;;;;;;;9.55;2.40;;;;;;;;;;4971189;28;20237;-61
2023/08/03 06:35:22;;;;;;;9.35;2.22;;;;;;;;;;4967176;28;20206;-61
2023/08/03 06:37:48;;;;;;;8.55;1.67;;;;;;;;;;4967265;28;20202;-61
2023/08/03 06:40:13;;;;;;;7.22;1.63;;;;;;;;;;4965917;28;20312;-61
2023/08/03 06:42:39;;;;;;;10.73;1.73;;;;;;;;;;4971665;28;20270;-61
2023/08/03 06:45:04;;;;;;;7.38;1.65;;;;;;;;;;4966842;28;20213;-63
2023/08/03 06:47:29;;;;;;;7.78;1.63;;;;;;;;;;4968347;28;20595;-62
2023/08/03 06:49:55;;;;;;;5.80;1.73;;;;;;;;;;4968856;28;20253;-61
2023/08/03 06:52:20;;;;;;;6.43;1.55;;;;;;;;;;4964824;28;20587;-61
2023/08/03 06:54:45;;;;;;;10.57;2.10;;;;;;;;;;4966732;28;20816;-61
2023/08/03 06:57:10;;;;;;;12.98;2.78;;;;;;;;;;4964983;28;20571;-61
2023/08/03 06:59:36;;;;;;;9.02;1.77;;;;;;;;;;4965135;28;20214;-61
2023/08/03 07:02:01;;;;;;;10.23;2.22;;;;;;;;;;4982627;28;20245;-61
2023/08/03 07:04:26;;;;;;;14.02;3.08;;;;;;;;;;4965793;28;20213;-61
2023/08/03 07:06:52;;;;;;;8.93;2.00;;;;;;;;;;4964884;28;20238;-61
2023/08/03 07:09:17;;;;;;;10.07;2.38;;;;;;;;;;4967455;28;20621;-61
2023/08/03 07:11:42;;;;;;;10.38;1.98;;;;;;;;;;4968337;28;20206;-61
2023/08/03 07:14:08;;;;;;;11.15;1.95;;;;;;;;;;4966834;28;20651;-61
2023/08/03 07:16:34;;;;;;;9.30;2.25;;;;;;;;;;4964354;28;20583;-61
2023/08/03 07:18:59;;;;;;;16.88;2.40;;;;;;;;;;4971008;28;20248;-61
2023/08/03 07:21:24;;;;;;;9.30;2.28;;;;;;;;;;4970357;28;20220;-61
2023/08/03 07:23:50;;;;;;;10.57;2.33;;;;;;;;;;4971041;28;20214;-61
2023/08/03 07:26:15;;;;;;;11.30;2.08;;;;;;;;;;4968956;28;20296;-61
2023/08/03 07:28:40;;;;;;;10.48;2.33;;;;;;;;;;4971302;28;20708;-61
2023/08/03 07:31:12;;;;;;;7.47;1.80;;;;;;;;;;4970603;28;20218;-61
2023/08/03 07:33:37;;;;;;;7.38;1.80;;;;;;;;;;4969246;28;20221;-61
2023/08/03 07:36:02;;;;;;;9.05;1.80;;;;;;;;;;4970529;28;20744;-61
2023/08/03 07:38:27;;;;;;;6.60;1.67;;;;;;;;;;4971535;28;20217;-61
2023/08/03 07:40:53;;;;;;;7.32;1.65;;;;;;;;;;4969958;28;20221;-61
2023/08/03 07:43:19;;;;;;;13.43;2.03;;;;;;;;;;4969082;28;20236;-61
2023/08/03 07:45:44;;;;;;;6.00;1.48;;;;;;;;;;4973047;28;20214;-61
2023/08/03 07:48:09;;;;;;;7.88;1.60;;;;;;;;;;4977731;28;20237;-61
2023/08/03 07:50:34;;;;;;;7.38;1.60;;;;;;;;;;4970157;28;20225;-60
2023/08/03 07:53:00;;;;;;;8.60;1.80;;;;;;;;;;4970078;28;20228;-61
2023/08/03 07:55:25;;;;;;;9.20;1.70;;;;;;;;;;4970317;28;20213;-60
2023/08/03 07:57:50;;;;;;;14.68;1.90;;;;;;;;;;4970454;28;20217;-61
2023/08/03 08:00:16;;;;;;;7.05;1.40;;;;;;;;;;4968182;28;20689;-60
2023/08/03 08:02:41;;;;;;;9.20;1.70;;;;;;;;;;4969160;28;20212;-61
2023/08/03 08:05:06;;;;;;;4.50;1.60;;;;;;;;;;4970338;28;20309;-61
2023/08/03 08:07:32;;;;;;;7.82;1.60;;;;;;;;;;4968529;28;20229;-60
2023/08/03 08:09:57;;;;;;;7.97;1.70;;;;;;;;;;4970419;28;20289;-61
2023/08/03 08:12:22;;;;;;;5.35;1.73;;;;;;;;;;4970261;28;20248;-61
2023/08/03 08:14:47;;;;;;;5.90;1.38;;;;;;;;;;4969116;28;20571;-60
2023/08/03 08:17:13;;;;;;;5.95;1.48;;;;;;;;;;4968336;28;20209;-61
2023/08/03 08:19:38;;;;;;;5.90;1.30;;;;;;;;;;4970671;28;20910;-61
2023/08/03 08:22:06;;;;;;;7.57;1.52;;;;;;;;;;4969795;28;20245;-61
2023/08/03 08:24:31;;;;;;;5.13;1.20;;;;;;;;;;4968019;28;20237;-61
2023/08/03 08:26:56;;;;;;;5.03;1.35;;;;;;;;;;4970428;28;20257;-61
2023/08/03 08:29:22;;;;;;;11.32;1.67;;;;;;;;;;4970027;28;20653;-61
2023/08/03 08:31:49;;;;;;;7.22;1.75;;;;;;;;;;4967610;28;20253;-61
2023/08/03 08:34:14;;;;;;;6.20;1.27;;;;;;;;;;4969464;28;20329;-61
2023/08/03 08:36:40;;;;;;;4.13;1.20;;;;;;;;;;4969570;28;20845;-61
2023/08/03 08:39:05;;;;;;;6.32;1.48;;;;;;;;;;4968358;28;20245;-61
2023/08/03 08:41:30;;;;;;;4.45;1.52;;;;;;;;;;4969091;28;20296;-61
2023/08/03 08:43:56;;;;;;;5.85;1.50;;;;;;;;;;4974202;28;20225;-61
2023/08/03 08:46:21;;;;;;;5.32;1.55;;;;;;;;;;4968888;28;20683;-61
2023/08/03 08:48:46;;;;;;;9.13;1.52;;;;;;;;;;4968093;28;20222;-60
2023/08/03 08:51:12;;;;;;;4.13;1.33;;;;;;;;;;4968981;28;20214;-61
2023/08/03 08:53:37;;;;;;;6.38;1.48;;;;;;;;;;4969920;28;20673;-60
2023/08/03 08:56:02;;;;;;;4.55;1.50;;;;;;;;;;4966708;28;20241;-61
2023/08/03 08:58:27;;;;;;;9.52;1.80;;;;;;;;;;4968917;28;20218;-60
2023/08/03 09:00:53;;;;;;;4.63;1.50;;;;;;;;;;4969524;28;20318;-60
2023/08/03 09:03:18;;;;;;;4.95;1.50;;;;;;;;;;4967252;28;20271;-60
2023/08/03 09:05:43;;;;;;;5.50;1.50;;;;;;;;;;4967895;28;20301;-60
2023/08/03 09:08:11;;;;;;;5.35;1.45;;;;;;;;;;4967498;28;20308;-60
2023/08/03 09:10:50;;;;;;;6.13;1.65;;;;;;;;;;4969909;28;20212;-60
2023/08/03 09:13:26;;;;;;;4.00;1.42;;;;;;;;;;4967195;28;20218;-61
2023/08/03 09:15:52;;;;;;;6.20;1.60;;;;;;;;;;4967620;28;20219;-60
2023/08/03 09:18:17;;;;;;;5.28;1.55;;;;;;;;;;4969039;28;21037;-60
2023/08/03 09:20:42;;;;;;;6.45;1.73;;;;;;;;;;4967188;28;20209;-60
2023/08/03 09:23:08;;;;;;;5.10;1.40;;;;;;;;;;4967223;28;20221;-60
2023/08/03 09:25:33;;;;;;;4.07;1.40;;;;;;;;;;4970122;28;20292;-60
2023/08/03 09:27:58;;;;;;;21.25;1.98;;;;;;;;;;4968902;28;20226;-60
2023/08/03 09:30:25;;;;;;;18.88;2.30;;;;;;;;;;4966757;28;20233;-61
2023/08/03 09:32:50;;;;;;;12.82;1.67;;;;;;;;;;4967152;28;20298;-61
2023/08/03 09:35:22;;;;;;;18.40;2.53;;;;;;;;;;4968989;28;20616;-61
2023/08/03 09:37:47;;;;;;;5.35;1.48;;;;;;;;;;4968332;28;20217;-61
2023/08/03 09:40:13;;;;;;;6.72;1.70;;;;;;;;;;4966909;28;20222;-61
2023/08/03 09:42:39;;;;;;;5.55;1.65;;;;;;;;;;4968792;28;20304;-61
2023/08/03 09:45:06;;;;;;;11.32;2.50;;;;;;;;;;4969353;28;20222;-61
2023/08/03 09:47:31;;;;;;;51.22;5.05;;;;;;;;;;4966315;28;20327;-60
2023/08/03 09:49:57;;;;;;;14.60;2.45;;;;;;;;;;4968832;28;20631;-60
2023/08/03 09:52:24;;;;;;;63.63;6.57;;;;;;;;;;4969008;28;20300;-60
2023/08/03 09:54:58;;;;;;;32.88;3.58;;;;;;;;;;4966217;28;20206;-60
2023/08/03 09:57:23;;;;;;;21.58;3.10;;;;;;;;;;4967296;28;20275;-60
2023/08/03 09:59:51;;;;;;;16.17;2.70;;;;;;;;;;4969368;28;20222;-60
2023/08/03 10:02:17;;;;;;;8.85;1.92;;;;;;;;;;4968252;28;20245;-61
2023/08/03 10:04:43;;;;;;;12.10;2.15;;;;;;;;;;4966435;28;20228;-60
2023/08/03 10:07:09;;;;;;;10.63;2.35;;;;;;;;;;4968711;28;20709;-61
2023/08/03 10:09:38;;;;;;;16.35;2.42;;;;;;;;;;4968859;28;20214;-61
2023/08/03 10:12:06;;;;;;;32.92;3.60;;;;;;;;;;4967270;28;20214;-61
2023/08/03 10:14:32;;;;;;;8.23;2.38;;;;;;;;;;4967931;28;20214;-61
2023/08/03 10:17:00;;;;;;;12.40;2.35;;;;;;;;;;4968330;28;20218;-63
2023/08/03 10:19:26;;;;;;;9.00;2.22;;;;;;;;;;4968383;28;20685;-61
2023/08/03 10:21:51;;;;;;;19.67;3.13;;;;;;;;;;4965852;28;20214;-61
2023/08/03 10:24:17;;;;;;;19.80;3.70;;;;;;;;;;4966632;28;20209;-61
2023/08/03 10:26:43;;;;;;;43.15;4.38;;;;;;;;;;4969523;28;20244;-61
2023/08/03 10:29:08;;;;;;;17.63;3.28;;;;;;;;;;4966871;28;20577;-62
2023/08/03 10:31:41;;;;;;;25.00;2.95;;;;;;;;;;4972032;28;21254;-63
2023/08/03 10:34:07;;;;;;;24.38;2.72;;;;;;;;;;4970601;28;20306;-62
2023/08/03 10:36:34;;;;;;;11.20;2.25;;;;;;;;;;4971633;28;20300;-62
2023/08/03 10:39:00;;;;;;;11.35;2.30;;;;;;;;;;4970383;28;20220;-61
2023/08/03 10:41:27;;;;;;;17.45;3.13;;;;;;;;;;4970852;28;20221;-62
2023/08/03 10:44:05;;;;;;;24.63;3.15;;;;;;;;;;4969098;28;20228;-61
2023/08/03 10:46:33;;;;;;;15.95;2.90;;;;;;;;;;4968498;28;20583;-63
2023/08/03 10:48:58;;;;;;;21.13;4.82;;;;;;;;;;4974409;28;20238;-64
2023/08/03 10:51:23;;;;;;;9.65;2.72;;;;;;;;;;4971345;28;20229;-63
2023/08/03 10:53:48;;;;;;;6.60;1.90;;;;;;;;;;4971668;28;20298;-62
2023/08/03 10:56:14;;;;;;;7.10;1.40;;;;;;;;;;4970029;28;20221;-62
2023/08/03 10:58:48;;;;;;;12.90;1.80;;;;;;;;;;4971415;28;20202;-61
2023/08/03 11:01:14;;;;;;;21.55;2.65;;;;;;;;;;4971670;28;20217;-62
2023/08/03 11:03:39;;;;;;;14.80;2.88;;;;;;;;;;4970249;28;20896;-62
2023/08/03 11:06:05;;;;;;;7.20;1.83;;;;;;;;;;4970254;28;20208;-62
2023/08/03 11:08:31;;;;;;;8.93;1.73;;;;;;;;;;4970634;28;20280;-62
2023/08/03 11:10:56;;;;;;;5.57;1.80;;;;;;;;;;4971109;28;20214;-61
2023/08/03 11:13:22;;;;;;;21.33;3.13;;;;;;;;;;4983682;28;20233;-61
2023/08/03 11:15:47;;;;;;;9.85;1.75;;;;;;;;;;4970369;28;20213;-62
2023/08/03 11:18:16;;;;;;;17.52;2.30;;;;;;;;;;4969976;28;20248;-61
2023/08/03 11:20:41;;;;;;;12.27;1.98;;;;;;;;;;4969056;28;20308;-61
2023/08/03 11:23:10;;;;;;;16.00;2.17;;;;;;;;;;4971326;28;20217;-61
2023/08/03 11:25:36;;;;;;;30.33;3.35;;;;;;;;;;4971525;28;20756;-61
2023/08/03 11:28:01;;;;;;;15.02;2.35;;;;;;;;;;4969487;28;20790;-62
2023/08/03 11:30:27;;;;;;;20.05;2.85;;;;;;;;;;4969757;28;20222;-61
2023/08/03 11:32:58;;;;;;;14.55;2.08;;;;;;;;;;4969996;28;20232;-61
2023/08/03 11:35:23;;;;;;;18.55;2.85;;;;;;;;;;4963013;28;20250;-61
2023/08/03 11:37:49;;;;;;;9.73;2.50;;;;;;;;;;4968366;28;20239;-61
2023/08/03 11:40:14;;;;;;;9.57;1.88;;;;;;;;;;4969938;28;20249;-62
2023/08/03 11:42:40;;;;;;;10.43;2.00;;;;;;;;;;4970776;28;20300;-61
2023/08/03 11:45:05;;;;;;;7.72;1.95;;;;;;;;;;4968817;28;20214;-62
2023/08/03 11:47:43;;;;;;;6.20;1.73;;;;;;;;;;4971287;28;20284;-62
2023/08/03 11:50:08;;;;;;;7.80;1.98;;;;;;;;;;4968014;28;20232;-62
2023/08/03 11:52:33;;;;;;;6.38;1.70;;;;;;;;;;4970807;28;20580;-61
2023/08/03 11:54:59;;;;;;;11.75;2.58;;;;;;;;;;4968426;28;20525;-62
2023/08/03 12:00:08;;;;;;;8.82;1.67;;;;;;;;;;4970683;28;20290;-62
2023/08/03 12:02:36;;;;;;;6.63;1.80;;;;;;;;;;4969233;28;20268;-62
2023/08/03 12:05:01;;;;;;;8.80;2.22;;;;;;;;;;4968936;28;20224;-62
2023/08/03 12:07:26;;;;;;;19.85;2.65;;;;;;;;;;4970779;28;20226;-61
2023/08/03 12:09:52;;;;;;;13.00;2.72;;;;;;;;;;4970108;28;20221;-61
2023/08/03 12:12:17;;;;;;;13.45;2.50;;;;;;;;;;4967695;28;20217;-61
2023/08/03 12:14:42;;;;;;;10.88;1.80;;;;;;;;;;4970210;28;20218;-61
2023/08/03 12:17:15;;;;;;;8.32;1.50;;;;;;;;;;4970967;28;20205;-61
2023/08/03 12:19:40;;;;;;;4.82;1.60;;;;;;;;;;4968809;28;20210;-61
2023/08/03 12:22:06;;;;;;;17.42;4.13;;;;;;;;;;4968880;28;20213;-62
2023/08/03 12:24:31;;;;;;;14.15;3.20;;;;;;;;;;4970446;28;20654;-67
2023/08/03 12:26:57;;;;;;;8.98;1.65;;;;;;;;;;4969588;28;20218;-62
2023/08/03 12:29:22;;;;;;;11.18;1.83;;;;;;;;;;4967859;28;20264;-61
2023/08/03 12:31:47;;;;;;;6.00;1.60;;;;;;;;;;4970183;28;20301;-61
2023/08/03 12:34:13;;;;;;;5.85;1.38;;;;;;;;;;4969681;28;20300;-61
2023/08/03 12:36:38;;;;;;;7.35;1.40;;;;;;;;;;4967576;28;20241;-61
2023/08/03 12:39:05;;;;;;;8.00;1.90;;;;;;;;;;4969485;28;20209;-61
2023/08/03 12:41:30;;;;;;;6.35;1.27;;;;;;;;;;4967644;28;20293;-61
2023/08/03 12:43:56;;;;;;;9.75;1.63;;;;;;;;;;4968558;28;20637;-62
2023/08/03 12:46:21;;;;;;;8.90;1.30;;;;;;;;;;4968175;28;20726;-61
2023/08/03 12:48:46;;;;;;;87.60;6.03;;;;;;;;;;4969903;28;20241;-61
2023/08/03 12:51:11;;;;;;;3.58;0.88;;;;;;;;;;4967408;28;20233;-62
2023/08/03 12:53:37;;;;;;;23.50;2.03;;;;;;;;;;4967895;28;20213;-61
2023/08/03 12:56:02;;;;;;;22.25;2.10;;;;;;;;;;4968471;28;20236;-61
2023/08/03 12:58:28;;;;;;;12.30;1.17;;;;;;;;;;4983815;28;20238;-61
2023/08/03 13:00:55;;;;;;;3.85;1.27;;;;;;;;;;4967924;28;20218;-61
2023/08/03 13:03:21;;;;;;;14.82;1.52;;;;;;;;;;4967973;28;20233;-61
2023/08/03 13:05:46;;;;;;;10.75;1.20;;;;;;;;;;4968625;28;20356;-62
2023/08/03 13:08:12;;;;;;;4.05;1.10;;;;;;;;;;4968220;28;20349;-61
2023/08/03 13:10:37;;;;;;;14.35;1.83;;;;;;;;;;4968651;28;20665;-61
2023/08/03 13:13:03;;;;;;;5.97;1.00;;;;;;;;;;4968402;28;20214;-61
2023/08/03 13:15:28;;;;;;;43.90;3.45;;;;;;;;;;4969609;28;20218;-61
2023/08/03 13:17:53;;;;;;;8.32;1.00;;;;;;;;;;4966764;28;20309;-61
2023/08/03 13:20:18;;;;;;;3.72;0.80;;;;;;;;;;4971333;28;20881;-62
2023/08/03 13:22:44;;;;;;;3.42;0.77;;;;;;;;;;4967224;28;20213;-61
2023/08/03 13:25:09;;;;;;;3.42;0.80;;;;;;;;;;4966887;28;20218;-61
2023/08/03 13:27:34;;;;;;;10.43;1.35;;;;;;;;;;4968574;28;20221;-61
2023/08/03 13:30:00;;;;;;;5.78;0.90;;;;;;;;;;4968291;28;20588;-61
2023/08/03 13:32:25;;;;;;;5.68;0.90;;;;;;;;;;4962501;28;20213;-62
2023/08/03 13:34:51;;;;;;;22.13;1.98;;;;;;;;;;4957426;28;20225;-61
2023/08/03 13:37:16;;;;;;;3.13;0.80;;;;;;;;;;4954586;28;20214;-61
2023/08/03 13:39:41;;;;;;;3.63;0.90;;;;;;;;;;4957980;28;20214;-61
2023/08/03 13:42:07;;;;;;;18.30;1.67;;;;;;;;;;4960454;28;20217;-61
2023/08/03 13:44:32;;;;;;;5.32;0.90;;;;;;;;;;4955584;28;20323;-61
2023/08/03 13:46:59;;;;;;;11.38;1.25;;;;;;;;;;4962814;28;20229;-62
2023/08/03 13:49:24;;;;;;;5.25;0.60;;;;;;;;;;4962593;28;20225;-61
2023/08/03 13:51:50;;;;;;;6.30;1.02;;;;;;;;;;4961420;28;20210;-61
2023/08/03 13:54:15;;;;;;;9.77;1.20;;;;;;;;;;4960580;28;20292;-61
2023/08/03 13:56:40;;;;;;;3.67;0.70;;;;;;;;;;4957437;28;20296;-61
2023/08/03 13:59:05;;;;;;;10.50;1.30;;;;;;;;;;4953852;28;20214;-61
2023/08/03 14:01:31;;;;;;;19.38;1.90;;;;;;;;;;4955755;28;20217;-61
2023/08/03 14:03:57;;;;;;;2.85;0.70;;;;;;;;;;4965211;28;20221;-61
2023/08/03 14:06:25;;;;;;;3.08;0.90;;;;;;;;;;4965523;28;20232;-61
2023/08/03 14:08:51;;;;;;;5.30;1.02;;;;;;;;;;4964927;28;20306;-61
2023/08/03 14:11:16;;;;;;;9.55;1.10;;;;;;;;;;4966519;28;20357;-61
2023/08/03 14:13:41;;;;;;;44.78;3.92;;;;;;;;;;4965805;28;20287;-61
2023/08/03 14:16:09;;;;;;;6.57;1.20;;;;;;;;;;4962816;28;20210;-61
2023/08/03 14:18:35;;;;;;;5.25;0.82;;;;;;;;;;4963785;28;20264;-61
2023/08/03 14:21:00;;;;;;;4.82;1.02;;;;;;;;;;4958973;28;20217;-62
2023/08/03 14:23:26;;;;;;;25.75;2.63;;;;;;;;;;4957754;28;20319;-62
2023/08/03 14:25:51;;;;;;;4.22;0.77;;;;;;;;;;4959968;28;20594;-61
2023/08/03 14:28:16;;;;;;;9.27;1.55;;;;;;;;;;4966019;28;20326;-62
2023/08/03 14:30:42;;;;;;;3.40;0.88;;;;;;;;;;4966137;28;20272;-61
2023/08/03 14:33:07;;;;;;;3.97;0.80;;;;;;;;;;4968311;28;20225;-61
2023/08/03 14:35:33;;;;;;;3.13;0.82;;;;;;;;;;4972126;28;20220;-62